Weather observations for the past three days for
Pierce County-Thun Field
Imperial (Metric)
Date Time (pdt) Wind (mph) Vis. (mi.) Weather Sky Cond. Temperature (ºF) Relative Humidity Wind Chill (°F) Heat Index (°F) Pressure Precipitation (in)
Air Dwpt 6 hour altimeter (in) sea level (mb) 1 hr 3 hr 6 hr
Max. Min.
06 10:35 Calm 10.00 Overcast OVC008 53.6 51.8 94% 30.14 0.0
06 10:15 Vrbl 3 10.00 Overcast OVC008 53.6 51.8 94% 30.14 0.0
06 09:55 Calm 10.00 Overcast OVC007 53.6 51.8 94% 30.13 0.0
06 09:35 Calm 10.00 Overcast OVC007 53.6 51.8 94% 30.13 0.0
06 09:15 Calm 10.00 Overcast OVC008 53.6 51.8 94% 30.13 0.0
06 08:55 Calm 10.00 Overcast OVC006 53.6 51.8 94% 30.13 0.0
06 08:35 Calm 10.00 Overcast OVC006 51.8 51.8 100% 30.12 0.0
06 08:15 Calm 9.00 Overcast OVC006 51.8 51.8 100% 30.13 0.0
06 07:55 Calm 6.00 Fog/Mist OVC005 51.8 51.8 100% 30.12 0.0
06 07:35 Calm 6.00 Fog/Mist OVC005 51.8 51.8 100% 30.11 0.0
06 07:15 Calm 2.50 Fog/Mist OVC005 51.8 51.8 100% 30.12 0.0
06 06:55 Calm 2.00 Fog/Mist OVC006 51.8 51.8 100% 30.12 0.0
06 06:35 Calm 3.00 Fog/Mist OVC007 51.8 51.8 100% 30.11 0.0
06 06:15 Calm 5.00 Fog/Mist OVC008 51.8 51.8 100% 30.1 0.0
06 05:55 Calm 7.00 Overcast OVC008 51.8 51.8 100% 30.1 0.0
06 05:35 Calm 10.00 Overcast OVC007 51.8 51.8 100% 30.1 0.0
06 05:15 Calm 5.00 Fog/Mist BKN006 OVC009 51.8 51.8 100% 30.09 0.0
06 04:55 Calm 4.00 Fog/Mist BKN006 OVC009 51.8 51.8 100% 30.09 0.0
06 04:35 Calm 3.00 Fog/Mist OVC007 51.8 51.8 100% 30.09 0.0
06 04:15 Calm 3.00 Fog/Mist BKN008 OVC011 51.8 51.8 100% 30.09 0.0
06 03:55 Calm 5.00 Fog/Mist OVC010 53.6 51.8 94% 30.09 0.0
06 03:35 Calm 10.00 Overcast OVC012 53.6 51.8 94% 30.08 0.0
06 03:15 Calm 10.00 Overcast OVC013 53.6 51.8 94% 30.07 0.0
06 02:55 Calm 10.00 Overcast FEW010 OVC015 53.6 51.8 94% 30.07 0.0
06 02:35 Calm 10.00 Overcast OVC015 53.6 51.8 94% 30.06 0.0
06 02:15 Calm 10.00 Overcast OVC017 53.6 51.8 94% 30.06 0.0
06 01:55 Calm 10.00 Overcast OVC018 53.6 51.8 94% 30.06 0.0
06 01:35 Calm 10.00 Overcast OVC019 53.6 51.8 94% 30.06 0.0
06 01:15 Calm 10.00 Overcast SCT012 OVC021 53.6 53.6 100% 30.06 0.0
06 00:55 Calm 10.00 Overcast FEW012 OVC022 53.6 53.6 100% 30.06 0.0
06 00:35 Calm 10.00 Overcast OVC024 55.4 53.6 94% 30.05 0.0
06 00:15 Calm 10.00 Overcast OVC026 55.4 53.6 94% 30.05 0.0
05 23:55 Calm 10.00 Overcast OVC026 53.6 51.8 94% 30.04 0.0
05 23:35 Calm 10.00 Overcast OVC027 53.6 53.6 100% 30.03 0.0
05 22:55 Calm 10.00 Partly Cloudy SCT026 55.4 53.6 94% 30.02 0.0
05 22:35 Calm 10.00 Fair CLR 55.4 53.6 94% 30.02 0.0
05 22:15 Calm 10.00 Fair CLR 55.4 53.6 94% 30.02 0.0
05 21:55 Calm 10.00 Fair CLR 53.6 53.6 100% 30.01 0.0
05 21:35 Calm 10.00 Fair CLR 55.4 53.6 94% 30.01 0.0
05 21:15 Calm 10.00 Fair CLR 57.2 53.6 88% 30.01 0.0
05 20:55 Calm 10.00 Fair CLR 57.2 53.6 88% 30 0.0
05 20:35 Calm 10.00 Fair CLR 57.2 55.4 94% 29.99 0.0
05 20:15 Calm 10.00 Fair CLR 60.8 53.6 77% 29.99 0.0
05 19:55 Calm 10.00 Fair CLR 62.6 53.6 73% 29.99 0.0
05 19:35 Calm 10.00 Fair CLR 64.4 53.6 68% 29.98 0.0
05 19:15 Calm 10.00 Fair CLR 64.4 53.6 68% 29.98 0.0
05 18:55 Calm 10.00 Fair CLR 66.2 53.6 64% 29.98 0.0
05 18:35 Calm 10.00 Fair CLR 66.2 53.6 64% 29.98 0.0
05 18:15 Calm 10.00 Fair CLR 66.2 53.6 64% 29.98 0.0
05 17:55 Calm 10.00 Fair CLR 66.2 51.8 60% 29.98 0.0
05 17:35 Calm 10.00 Fair CLR 68 51.8 56% 29.98 0.0
05 17:15 Calm 10.00 Fair CLR 66.2 51.8 60% 29.99 0.0
05 16:55 Calm 10.00 A Few Clouds FEW030 68 51.8 56% 29.99 0.0
05 16:35 Calm 10.00 Partly Cloudy SCT029 66.2 53.6 64% 30 0.0
05 16:15 Calm 10.00 Partly Cloudy SCT028 66.2 51.8 60% 30 0.0
05 15:55 Calm 10.00 Overcast OVC028 66.2 51.8 60% 30 0.0
05 15:35 Calm 0.00 Overcast OVC027 64.4 51.8 64% 30.01 0.0
05 15:15 Calm 10.00 Overcast OVC026 64.4 51.8 64% 30.02 0.0
05 14:55 Calm 10.00 Overcast OVC025 64.4 51.8 64% 30.02 0.0
05 14:35 Calm 10.00 Overcast OVC024 62.6 51.8 68% 30.02 0.0
05 14:15 Calm 10.00 Overcast OVC023 62.6 51.8 68% 30.02 0.0
05 13:55 Calm 10.00 Overcast OVC022 60.8 51.8 72% 30.03 0.0
05 13:35 Calm 10.00 Overcast OVC021 60.8 51.8 72% 30.03 0.0
05 13:15 Calm 10.00 Overcast OVC020 59 51.8 77% 30.03 0.0
05 12:55 Calm 10.00 Overcast OVC020 59 51.8 77% 30.03 0.0
05 12:35 Calm 10.00 Overcast OVC018 59 51.8 77% 30.03 0.0
05 12:15 Calm 10.00 Overcast OVC018 57.2 51.8 82% 30.03 0.0
05 11:55 Calm 10.00 Overcast OVC017 57.2 50 77% 30.03 0.0
05 11:35 Calm 10.00 Overcast OVC017 57.2 51.8 82% 30.03 0.0
05 11:15 Calm 10.00 Overcast OVC017 57.2 50 77% 30.03 0.0
05 10:55 Calm 10.00 Overcast OVC017 57.2 50 77% 30.03 0.0
05 10:35 Calm 10.00 Overcast OVC016 57.2 50 77% 30.02 0.0
05 10:15 Calm 10.00 Overcast OVC016 55.4 51.8 88% 30.02 0.0
05 09:55 Calm 10.00 Overcast OVC015 55.4 51.8 88% 30.02 0.0
05 09:35 Calm 10.00 Overcast OVC015 55.4 51.8 88% 30.01 0.0
05 09:15 Calm 10.00 Overcast OVC015 55.4 51.8 88% 30.01 0.0
05 08:55 Calm 10.00 Overcast OVC015 55.4 50 82% 30.01 0.0
05 08:35 Calm 10.00 Overcast OVC015 55.4 51.8 88% 30.01 0.0
05 08:15 Calm 10.00 Overcast OVC014 55.4 51.8 88% 30.01 0.0
05 07:55 Calm 10.00 Overcast OVC012 55.4 51.8 88% 30 0.0
05 07:35 Calm 10.00 Overcast OVC012 55.4 51.8 88% 30 0.0
05 07:15 Calm 10.00 Overcast OVC013 55.4 51.8 88% 29.99 0.0
05 06:55 Calm 10.00 Overcast OVC012 55.4 51.8 88% 29.99 0.0
05 06:35 Calm 10.00 Overcast OVC012 55.4 51.8 88% 29.98 0.0
05 06:15 Calm 10.00 Overcast OVC012 53.6 51.8 94% 29.98 0.0
05 05:55 Calm 10.00 Overcast OVC012 53.6 51.8 94% 29.97 0.0
05 05:35 Calm 10.00 Overcast OVC012 53.6 51.8 94% 29.97 0.0
05 05:15 Calm 10.00 Overcast OVC012 53.6 51.8 94% 29.96 0.0
05 04:55 Calm 10.00 Overcast OVC012 55.4 51.8 88% 29.96 0.0
05 04:35 Calm 10.00 Overcast OVC013 53.6 51.8 94% 29.96 0.0
05 04:15 Calm 10.00 Overcast OVC013 53.6 51.8 94% 29.96 0.0
05 03:55 Calm 10.00 Overcast OVC012 53.6 51.8 94% 29.96 0.0
05 03:35 Calm 10.00 Overcast OVC011 53.6 51.8 94% 29.95 0.0
05 03:15 Calm 10.00 Overcast OVC011 53.6 51.8 94% 29.95 0.0
05 02:55 Calm 10.00 Overcast OVC010 53.6 51.8 94% 29.95 0.0
05 02:35 Calm 10.00 Overcast OVC010 53.6 51.8 94% 29.94 0.0
05 02:15 Calm 10.00 Mostly Cloudy BKN010 BKN014 51.8 51.8 100% 29.94 0.0
05 01:55 Calm 10.00 Mostly Cloudy BKN014 51.8 51.8 100% 29.94 0.0
05 01:35 Calm 10.00 Partly Cloudy SCT013 51.8 51.8 100% 29.94 0.0
05 01:15 Calm 10.00 Fair CLR 51.8 51.8 100% 29.93 0.0
05 00:55 Calm 10.00 Fair CLR 51.8 51.8 100% 29.93 0.0
05 00:35 Calm 10.00 Fair CLR 51.8 51.8 100% 29.92 0.0
05 00:15 Calm 10.00 A Few Clouds FEW040 FEW047 51.8 51.8 100% 29.92 0.0
04 23:55 Calm 10.00 A Few Clouds FEW043 51.8 51.8 100% 29.91 0.0
04 23:35 Calm 10.00 A Few Clouds FEW045 51.8 51.8 100% 29.91 0.0
04 23:15 Calm 10.00 A Few Clouds FEW044 53.6 51.8 94% 29.9 0.0
04 22:55 Calm 10.00 A Few Clouds FEW042 FEW049 55.4 51.8 88% 29.9 0.0
04 22:35 Calm 10.00 Fair CLR 55.4 51.8 88% 29.89 0.0
04 22:15 Calm 10.00 Fair CLR 57.2 51.8 82% 29.88 0.0
04 21:55 Calm 10.00 Fair CLR 57.2 51.8 82% 29.88 0.0
04 21:35 Calm 10.00 Fair CLR 59 51.8 77% 29.88 0.0
04 21:15 Calm 10.00 Fair CLR 59 51.8 77% 29.87 0.0
04 20:55 Calm 10.00 Fair CLR 60.8 51.8 72% 29.87 0.0
04 20:35 Calm 10.00 Fair CLR 62.6 51.8 68% 29.86 0.0
04 20:15 Calm 10.00 Fair CLR 64.4 51.8 64% 29.85 0.0
04 19:55 Calm 10.00 Fair CLR 68 51.8 56% 29.84 0.0
04 19:35 Calm 10.00 Fair CLR 69.8 51.8 53% 29.83 0.0
04 19:15 Calm 10.00 Fair CLR 71.6 51.8 50% 29.83 0.0
04 18:55 Calm 10.00 Fair CLR 73.4 51.8 47% 29.83 0.0
04 18:35 Calm 10.00 Fair CLR 73.4 53.6 50% 29.83 0.0
04 18:15 Calm 10.00 Fair CLR 77 53.6 44% 78 29.83 0.0
04 17:55 Calm 10.00 Fair CLR 77 53.6 44% 78 29.83 0.0
04 17:35 Calm 10.00 Fair CLR 78.8 53.6 42% 79 29.83 0.0
04 17:15 Vrbl 5 10.00 Fair CLR 78.8 53.6 42% 79 29.83 0.0
04 16:55 Calm 10.00 Fair CLR 78.8 53.6 42% 79 29.82 0.0
04 16:35 W 7 10.00 Fair CLR 80.6 53.6 39% 80 29.83 0.0
04 16:15 Calm 10.00 Fair CLR 80.6 51.8 37% 80 29.83 0.0
04 15:55 Calm 10.00 Fair CLR 80.6 53.6 39% 80 29.83 0.0
04 15:35 Vrbl 3 10.00 Fair CLR 80.6 53.6 39% 80 29.84 0.0
04 15:15 Calm 10.00 Fair CLR 80.6 51.8 37% 80 29.84 0.0
04 14:55 Vrbl 5 10.00 Fair CLR 80.6 51.8 37% 80 29.85 0.0
04 14:35 Calm 10.00 Fair CLR 78.8 51.8 39% 79 29.85 0.0
04 14:15 Calm 10.00 Fair CLR 80.6 50 34% 80 29.85 0.0
04 13:55 Calm 10.00 Fair CLR 78.8 50 37% 79 29.85 0.0
04 13:35 Vrbl 5 10.00 Fair CLR 78.8 51.8 39% 79 29.86 0.0
04 13:15 Calm 10.00 Fair CLR 78.8 51.8 39% 79 29.86 0.0
04 12:55 Calm 10.00 Fair CLR 77 50 39% 78 29.86 0.0
04 12:35 Calm 10.00 Fair CLR 77 50 39% 78 29.86 0.0
04 12:15 Calm 10.00 Fair CLR 77 50 39% 78 29.87 0.0
04 11:55 Calm 10.00 Fair CLR 75.2 48.2 39% 77 29.87 0.0
04 11:35 Calm 10.00 Fair CLR 75.2 48.2 39% 77 29.88 0.0
04 11:15 Calm 10.00 Fair CLR 73.4 46.4 38% 29.88 0.0
04 10:55 Calm 10.00 Fair CLR 71.6 46.4 41% 29.88 0.0
04 10:35 Calm 10.00 Fair CLR 71.6 50 47% 29.88 0.0
04 10:15 Calm 10.00 Fair CLR 71.6 50 47% 29.88 0.0
04 09:55 Calm 10.00 Fair CLR 69.8 51.8 53% 29.87 0.0
04 09:35 Calm 10.00 Fair CLR 68 50 53% 29.87 0.0
04 09:15 Calm 10.00 Fair CLR 66.2 50 56% 29.87 0.0
04 08:55 Calm 9.00 Fair CLR 66.2 50 56% 29.87 0.0
04 08:35 SW 3 10.00 Fair CLR 62.6 50 64% 29.86 0.0
04 08:15 Calm 10.00 Fair CLR 62.6 50 64% 29.86 0.0
04 07:55 Calm 10.00 Fair CLR 60.8 50 68% 29.85 0.0
04 07:35 Calm 10.00 Fair CLR 57.2 51.8 82% 29.85 0.0
04 07:15 Calm 10.00 Light Drizzle CLR 55.4 50 82% 29.85 0.0
04 06:55 Calm 10.00 Light Drizzle CLR 51.8 50 94% 29.84 0.0
04 06:35 Calm 10.00 Light Drizzle CLR 50 50 100% 29.84 0.0
04 06:15 Calm 10.00 Light Drizzle CLR 50 50 100% 29.83 0.0
04 05:55 Calm 10.00 Light Drizzle CLR 50 50 100% 29.83 0.0
04 05:35 Calm 10.00 Light Drizzle CLR 50 50 100% 29.82 0.0
04 05:15 Calm 10.00 Light Drizzle CLR 51.8 50 94% 29.83 0.0
04 04:55 Calm 10.00 Light Drizzle FEW060 50 50 100% 29.82 0.0
04 04:35 Calm 10.00 Light Drizzle FEW060 50 50 100% 29.82 0.0
04 04:15 Calm 10.00 Light Drizzle FEW060 50 50 100% 29.82 0.0
04 03:55 Calm 10.00 Light Drizzle CLR 50 50 100% 29.82 0.0
04 03:35 Calm 10.00 Light Drizzle CLR 51.8 51.8 100% 29.81 0.0
04 03:15 Calm 10.00 Fair CLR 51.8 51.8 100% 29.82 0.0
04 02:55 Calm 10.00 Fair CLR 53.6 51.8 94% 29.81 0.0
04 02:35 Calm 10.00 Fair CLR 55.4 53.6 94% 29.82 0.0
04 02:15 Calm 10.00 Fair CLR 53.6 53.6 100% 29.82 0.0
04 01:55 Calm 10.00 Fair CLR 53.6 51.8 94% 29.82 0.0
04 01:35 Calm 10.00 Fair CLR 53.6 51.8 94% 29.82 0.0
04 01:15 Calm 10.00 Fair CLR 55.4 53.6 94% 29.82 0.0
04 00:55 Calm 10.00 Fair CLR 55.4 51.8 88% 29.82 0.0
04 00:35 Calm 10.00 Fair CLR 55.4 51.8 88% 29.82 0.0
04 00:15 Calm 10.00 Fair CLR 55.4 51.8 88% 29.82 0.0
03 23:55 Calm 10.00 Fair CLR 55.4 51.8 88% 29.82 0.0
03 23:35 Calm 10.00 Fair CLR 57.2 53.6 88% 29.82 0.0
03 23:15 Calm 10.00 Fair CLR 57.2 51.8 82% 29.82 0.0
03 22:55 Calm 10.00 Fair CLR 59 51.8 77% 29.82 0.0
03 22:35 Calm 10.00 Fair CLR 57.2 51.8 82% 29.82 0.0
03 22:15 Calm 10.00 Fair CLR 59 51.8 77% 29.82 0.0
03 21:55 Calm 10.00 Fair CLR 60.8 51.8 72% 29.82 0.0
03 21:35 Calm 10.00 Fair CLR 62.6 50 64% 29.82 0.0
03 21:15 Calm 10.00 Fair CLR 62.6 51.8 68% 29.82 0.0
03 20:55 Calm 10.00 Fair CLR 64.4 51.8 64% 29.82 0.0
03 20:35 Calm 10.00 Fair CLR 66.2 50 56% 29.81 0.0
03 20:15 Calm 10.00 Fair CLR 68 51.8 56% 29.81 0.0
03 19:55 Calm 10.00 Fair CLR 71.6 50 47% 29.81 0.0
03 19:35 Calm 10.00 Fair CLR 73.4 50 44% 29.81 0.0
03 19:15 Calm 10.00 Fair CLR 77 48.2 36% 78 29.81 0.0
03 18:55 Calm 10.00 Fair CLR 78.8 48.2 34% 79 29.81 0.0
03 18:35 Calm 10.00 Fair CLR 78.8 48.2 34% 79 29.81 0.0
03 18:15 Vrbl 5 10.00 Fair CLR 80.6 48.2 32% 80 29.82 0.0
03 17:55 Calm 10.00 Fair CLR 80.6 48.2 32% 80 29.82 0.0
03 17:35 Calm 10.00 Fair CLR 82.4 48.2 30% 81 29.83 0.0
03 17:15 Vrbl 5 10.00 Fair CLR 82.4 48.2 30% 81 29.83 0.0
03 16:55 Calm 10.00 Fair CLR 82.4 48.2 30% 81 29.83 0.0
03 16:35 Calm 10.00 Fair CLR 82.4 48.2 30% 81 29.84 0.0
03 16:15 Calm 10.00 Fair CLR 82.4 50 32% 81 29.85 0.0
03 15:55 Calm 10.00 Fair CLR 82.4 50 32% 81 29.85 0.0
03 15:35 Calm 10.00 Fair CLR 82.4 51.8 35% 81 29.86 0.0
03 15:15 NW 5 10.00 Fair CLR 80.6 51.8 37% 80 29.87 0.0
03 14:55 Calm 10.00 Fair CLR 80.6 51.8 37% 80 29.88 0.0
03 14:35 Vrbl 3 10.00 Fair CLR 80.6 51.8 37% 80 29.88 0.0
03 14:15 Calm 10.00 Fair CLR 78.8 51.8 39% 79 29.89 0.0
03 13:55 Vrbl 5 10.00 Fair CLR 78.8 51.8 39% 79 29.89 0.0
03 13:35 Calm 10.00 Fair CLR 78.8 53.6 42% 79 29.9 0.0
03 13:15 Calm 10.00 Fair CLR 78.8 53.6 42% 79 29.9 0.0
03 12:55 Calm 10.00 Fair CLR 78.8 51.8 39% 79 29.91 0.0
03 12:35 Vrbl 3 10.00 Fair CLR 78.8 51.8 39% 79 29.92 0.0
03 11:55 Calm 10.00 Fair CLR 75.2 53.6 47% 78 29.93 0.0
03 11:35 Calm 10.00 Fair CLR 75.2 53.6 47% 78 29.94 0.0
03 11:15 Calm 10.00 Fair CLR 73.4 53.6 50% 29.94 0.0
03 10:55 Calm 10.00 Fair CLR 73.4 53.6 50% 29.94 0.0
Date Time (pdt) Wind (mph) Vis. (mi.) Weather Sky Cond. Air Dwpt Max. Min. Relative Humidity Wind Chill (°F) Heat Index (°F) altimeter (in) sea level (mb) 1 hr 3 hr 6 hr
6 hour
Temperature (ºF) Pressure Precipitation (in)